createdAt,value
2022-11-20T00:00:26.434Z,97326.09
2022-11-20T00:02:53.875Z,97321.47
2022-11-20T00:05:22.748Z,97323.13
2022-11-20T00:07:50.168Z,97327.75
2022-11-20T00:10:17.584Z,97322.75
2022-11-20T00:12:45.027Z,97318.81
2022-11-20T00:15:12.455Z,97312.31
2022-11-20T00:17:39.880Z,97315.97
2022-11-20T00:20:08.180Z,97307.84
2022-11-20T00:22:36.990Z,97315.50
2022-11-20T00:25:04.674Z,97315.19
2022-11-20T00:27:32.094Z,97311.69
2022-11-20T00:29:59.526Z,97321.59
2022-11-20T00:32:27.008Z,97323.13
2022-11-20T00:34:54.444Z,97315.50
2022-11-20T00:37:21.904Z,97318.44
2022-11-20T00:39:50.655Z,97324.94
2022-11-20T00:42:18.100Z,97317.81
2022-11-20T00:44:45.532Z,97316.31
2022-11-20T00:47:12.979Z,97318.81
2022-11-20T00:49:40.408Z,97328.75
2022-11-20T00:52:07.815Z,97319.50
2022-11-20T00:54:35.268Z,97317.97
2022-11-20T00:57:04.027Z,97323.09
2022-11-20T00:59:31.451Z,97319.97
2022-11-20T01:01:58.872Z,97330.09
2022-11-20T01:04:26.309Z,97316.66
2022-11-20T01:06:53.788Z,97318.81
2022-11-20T01:09:21.450Z,97321.13
2022-11-20T01:11:49.194Z,97320.94
2022-11-20T01:14:20.326Z,97316.00
2022-11-20T01:16:50.179Z,97324.59
2022-11-20T01:19:20.114Z,97325.28
2022-11-20T01:21:50.472Z,97320.44
2022-11-20T01:24:19.915Z,97319.91
2022-11-20T01:26:49.786Z,97326.59
2022-11-20T01:29:21.247Z,97332.72
2022-11-20T01:31:49.403Z,97331.06
2022-11-20T01:34:20.338Z,97330.56
2022-11-20T01:36:48.200Z,97326.75
2022-11-20T01:39:18.043Z,97322.13
2022-11-20T01:42:09.397Z,97321.97
2022-11-20T01:45:00.350Z,97317.63
2022-11-20T01:47:34.070Z,97315.28
2022-11-20T01:50:06.381Z,97307.19
2022-11-20T01:52:38.391Z,97307.03
2022-11-20T01:55:08.896Z,97309.88
2022-11-20T01:57:37.870Z,97299.94
2022-11-20T02:00:08.654Z,97301.09
2022-11-20T02:02:36.937Z,97299.09
2022-11-20T02:05:12.472Z,97299.28
2022-11-20T02:07:40.620Z,97303.88
2022-11-20T02:10:08.915Z,97310.72
2022-11-20T02:12:53.998Z,97311.66
2022-11-20T02:15:26.315Z,97314.19
2022-11-20T02:17:57.560Z,97313.50
2022-11-20T02:20:25.075Z,97306.72
2022-11-20T02:22:56.791Z,97315.31
2022-11-20T02:25:26.550Z,97304.72
2022-11-20T02:27:54.145Z,97297.28
2022-11-20T02:30:21.596Z,97301.56
2022-11-20T02:32:49.027Z,97294.97
2022-11-20T02:35:44.760Z,97300.53
2022-11-20T02:38:12.382Z,97295.63
2022-11-20T02:40:41.205Z,97299.75
2022-11-20T02:43:09.206Z,97300.09
2022-11-20T02:45:36.651Z,97301.88
2022-11-20T02:48:04.305Z,97293.63
2022-11-20T02:50:31.960Z,97292.94
2022-11-20T02:52:59.412Z,97296.16
2022-11-20T02:55:26.870Z,97301.03
2022-11-20T02:57:55.628Z,97293.75
2022-11-20T03:00:23.347Z,97294.34
2022-11-20T03:02:50.767Z,97294.09
2022-11-20T03:05:18.227Z,97298.28
2022-11-20T03:07:45.972Z,97291.41
2022-11-20T03:10:13.495Z,97292.94
2022-11-20T03:12:40.910Z,97285.16
2022-11-20T03:15:11.152Z,97285.19
2022-11-20T03:17:38.573Z,97279.53
2022-11-20T03:20:07.611Z,97280.88
2022-11-20T03:22:34.898Z,97279.00
2022-11-20T03:25:02.346Z,97276.91
2022-11-20T03:27:34.143Z,97286.16
2022-11-20T03:30:01.797Z,97282.03
2022-11-20T03:32:30.739Z,97289.44
2022-11-20T03:34:58.164Z,97277.22
2022-11-20T03:37:25.695Z,97286.03
2022-11-20T03:39:53.117Z,97281.72
2022-11-20T03:42:49.856Z,97273.59
2022-11-20T03:45:18.646Z,97278.56
2022-11-20T03:47:47.846Z,97268.47
2022-11-20T03:50:15.815Z,97274.44
2022-11-20T03:52:43.312Z,97272.09
2022-11-20T03:55:11.157Z,97273.13
2022-11-20T03:57:38.563Z,97272.59
2022-11-20T04:00:07.067Z,97269.44
2022-11-20T04:02:34.538Z,97271.13
2022-11-20T04:05:03.384Z,97269.94
2022-11-20T04:07:30.868Z,97264.66
2022-11-20T04:09:58.317Z,97261.03
2022-11-20T04:12:25.746Z,97260.53
2022-11-20T04:14:53.175Z,97260.38
2022-11-20T04:17:20.600Z,97266.50
2022-11-20T04:19:48.590Z,97258.84
2022-11-20T04:22:17.407Z,97266.50
2022-11-20T04:24:44.865Z,97255.22
2022-11-20T04:27:12.307Z,97258.84
2022-11-20T04:29:39.717Z,97255.69
2022-11-20T04:32:07.536Z,97254.88
2022-11-20T04:34:35.155Z,97255.06
2022-11-20T04:37:02.590Z,97266.16
2022-11-20T04:39:31.363Z,97253.06
2022-11-20T04:42:12.736Z,97252.09
2022-11-20T04:44:40.183Z,97254.38
2022-11-20T04:47:07.900Z,97256.69
2022-11-20T04:49:35.685Z,97253.75
2022-11-20T04:52:03.149Z,97256.69
2022-11-20T04:54:31.921Z,97263.50
2022-11-20T04:56:59.359Z,97256.41
2022-11-20T04:59:26.795Z,97251.91
2022-11-20T05:01:54.411Z,97255.91
2022-11-20T05:04:21.907Z,97259.84
2022-11-20T05:06:49.397Z,97260.53
2022-11-20T05:09:16.831Z,97251.41
2022-11-20T05:11:49.164Z,97254.72
2022-11-20T05:14:18.832Z,97251.25
2022-11-20T05:16:46.279Z,97255.06
2022-11-20T05:19:13.779Z,97256.41
2022-11-20T05:21:41.227Z,97256.22
2022-11-20T05:24:08.879Z,97254.59
2022-11-20T05:26:36.330Z,97252.75
2022-11-20T05:29:05.156Z,97248.59
2022-11-20T05:31:32.680Z,97244.78
2022-11-20T05:34:00.104Z,97233.22
2022-11-20T05:36:27.635Z,97227.56
2022-11-20T05:39:01.029Z,97230.19
2022-11-20T05:41:28.875Z,97230.06
2022-11-20T05:43:57.995Z,97225.59
2022-11-20T05:46:29.080Z,97232.38
2022-11-20T05:48:57.474Z,97234.19
2022-11-20T05:51:25.748Z,97230.56
2022-11-20T05:53:53.185Z,97221.78
2022-11-20T05:56:22.048Z,97221.19
2022-11-20T05:58:50.238Z,97221.63
2022-11-20T06:01:22.272Z,97219.31
2022-11-20T06:03:51.920Z,97218.28
2022-11-20T06:06:20.975Z,97225.59
2022-11-20T06:08:48.749Z,97219.63
2022-11-20T06:11:17.880Z,97224.13
2022-11-20T06:13:46.314Z,97226.25
2022-11-20T06:16:16.262Z,97227.75
2022-11-20T06:18:43.699Z,97229.22
2022-11-20T06:21:14.428Z,97229.22
2022-11-20T06:23:41.928Z,97234.84
2022-11-20T06:26:11.858Z,97231.53
2022-11-20T06:28:39.819Z,97226.09
2022-11-20T06:31:08.842Z,97226.78
2022-11-20T06:33:36.134Z,97222.59
2022-11-20T06:36:10.416Z,97231.88
2022-11-20T06:38:40.344Z,97234.88
2022-11-20T06:41:08.248Z,97235.69
2022-11-20T06:43:35.675Z,97243.66
2022-11-20T06:46:03.203Z,97244.28
2022-11-20T06:48:31.728Z,97243.81
2022-11-20T06:50:59.904Z,97247.44
2022-11-20T06:53:28.477Z,97248.78
2022-11-20T06:55:58.519Z,97254.06
2022-11-20T06:58:29.006Z,97242.81
2022-11-20T07:01:00.141Z,97240.81
2022-11-20T07:03:27.688Z,97241.66
2022-11-20T07:05:56.573Z,97245.13
2022-11-20T07:08:24.028Z,97248.94
2022-11-20T07:10:51.476Z,97249.44
2022-11-20T07:13:20.288Z,97254.53
2022-11-20T07:15:47.739Z,97253.75
2022-11-20T07:18:15.167Z,97252.09
2022-11-20T07:20:42.649Z,97253.28
2022-11-20T07:23:10.148Z,97253.56
2022-11-20T07:25:37.602Z,97255.22
2022-11-20T07:28:05.470Z,97262.84
2022-11-20T07:30:34.255Z,97262.00
2022-11-20T07:33:01.666Z,97247.97
2022-11-20T07:35:29.271Z,97250.38
2022-11-20T07:37:56.698Z,97263.53
2022-11-20T07:40:24.162Z,97257.25
2022-11-20T07:42:53.080Z,97257.41
2022-11-20T07:45:20.942Z,97257.56
2022-11-20T07:47:50.052Z,97263.22
2022-11-20T07:50:18.579Z,97260.03
2022-11-20T07:52:46.180Z,97265.84
2022-11-20T07:55:13.761Z,97263.88
2022-11-20T07:57:41.290Z,97266.53
2022-11-20T08:00:11.403Z,97264.03
2022-11-20T08:02:40.077Z,97274.47
2022-11-20T08:05:09.909Z,97267.50
2022-11-20T08:07:38.648Z,97259.06
2022-11-20T08:10:07.064Z,97260.06
2022-11-20T08:12:52.112Z,97266.69
2022-11-20T08:15:19.576Z,97264.53
2022-11-20T08:18:08.317Z,97267.03
2022-11-20T08:20:36.111Z,97268.34
2022-11-20T08:23:06.476Z,97263.56
2022-11-20T08:25:35.082Z,97262.72
2022-11-20T08:28:12.978Z,97259.38
2022-11-20T08:30:46.804Z,97265.69
2022-11-20T08:33:14.223Z,97261.34
2022-11-20T08:35:43.803Z,97259.72
2022-11-20T08:38:11.607Z,97255.25
2022-11-20T08:40:39.048Z,97257.06
2022-11-20T08:43:06.499Z,97259.38
2022-11-20T08:45:35.203Z,97261.88
2022-11-20T08:48:03.420Z,97255.91
2022-11-20T08:50:32.822Z,97259.06
2022-11-20T08:53:05.711Z,97259.06
2022-11-20T08:55:33.641Z,97265.53
2022-11-20T08:58:05.325Z,97257.75
2022-11-20T09:00:33.243Z,97262.88
2022-11-20T09:03:01.831Z,97257.75
2022-11-20T09:05:29.446Z,97260.22
2022-11-20T09:07:58.046Z,97258.38
2022-11-20T09:10:26.896Z,97254.41
2022-11-20T09:12:55.939Z,97245.16
2022-11-20T09:15:24.375Z,97248.63
2022-11-20T09:17:55.205Z,97231.72
2022-11-20T09:20:23.321Z,97243.41
2022-11-20T09:22:50.774Z,97254.06
2022-11-20T09:25:18.963Z,97244.16
2022-11-20T09:27:47.890Z,97235.22
2022-11-20T09:30:16.843Z,97242.50
2022-11-20T09:32:44.961Z,97241.66
2022-11-20T09:35:12.780Z,97237.69
2022-11-20T09:37:40.342Z,97246.97
2022-11-20T09:40:18.757Z,97243.00
2022-11-20T09:42:54.367Z,97239.00
2022-11-20T09:45:26.511Z,97247.81
2022-11-20T09:48:16.110Z,97249.94
2022-11-20T09:50:49.782Z,97252.88
2022-11-20T09:53:24.198Z,97255.91
2022-11-20T09:55:52.474Z,97253.28
2022-11-20T09:58:31.283Z,97259.22
2022-11-20T10:01:05.538Z,97256.25
2022-11-20T10:03:43.249Z,97244.00
2022-11-20T10:06:17.320Z,97246.13
2022-11-20T10:08:50.788Z,97245.31
2022-11-20T10:11:25.718Z,97236.22
2022-11-20T10:14:08.066Z,97230.72
2022-11-20T10:16:46.236Z,97229.75
2022-11-20T10:19:32.148Z,97231.41
2022-11-20T10:22:09.586Z,97224.59
2022-11-20T10:24:45.424Z,97216.97
2022-11-20T10:27:32.309Z,97221.28
2022-11-20T10:30:05.362Z,97222.28
2022-11-20T10:32:39.691Z,97229.59
2022-11-20T10:35:19.143Z,97222.66
2022-11-20T10:37:50.813Z,97217.31
2022-11-20T10:40:25.082Z,97218.97
2022-11-20T10:42:57.010Z,97222.63
2022-11-20T10:45:42.233Z,97219.81
2022-11-20T10:48:17.362Z,97209.84
2022-11-20T10:50:53.236Z,97207.88
2022-11-20T10:53:33.343Z,97209.34
2022-11-20T10:56:07.820Z,97199.59
2022-11-20T10:58:43.310Z,97212.00
2022-11-20T11:01:17.754Z,97203.56
2022-11-20T11:03:46.012Z,97205.47
2022-11-20T11:06:19.949Z,97204.38
2022-11-20T11:08:50.673Z,97197.59
2022-11-20T11:11:24.446Z,97195.28
2022-11-20T11:13:52.400Z,97239.19
2022-11-20T11:16:25.670Z,97285.59
2022-11-20T11:18:53.612Z,97283.81
2022-11-20T11:21:26.046Z,97250.97
2022-11-20T11:24:19.923Z,97246.94
2022-11-20T11:26:59.979Z,97247.59
2022-11-20T11:29:30.330Z,97245.94
2022-11-20T11:32:07.347Z,97247.44
2022-11-20T11:34:35.110Z,97232.16
2022-11-20T11:37:04.537Z,97223.78
2022-11-20T11:39:34.551Z,97226.75
2022-11-20T11:42:02.961Z,97225.94
2022-11-20T11:44:51.234Z,97228.75
2022-11-20T11:47:26.357Z,97215.50
2022-11-20T11:50:02.427Z,97210.53
2022-11-20T11:52:31.030Z,97206.56
2022-11-20T11:55:08.471Z,97216.66
2022-11-20T11:57:47.609Z,97207.22
2022-11-20T12:00:17.690Z,97220.13
2022-11-20T12:02:56.252Z,97224.28
2022-11-20T12:05:26.573Z,97225.09
2022-11-20T12:07:59.773Z,97215.34
2022-11-20T12:10:42.976Z,97211.88
2022-11-20T12:13:22.531Z,97227.25
2022-11-20T12:15:50.412Z,97220.91
2022-11-20T12:18:21.723Z,97221.13
2022-11-20T12:21:00.803Z,97219.81
2022-11-20T12:23:34.209Z,97219.47
2022-11-20T12:26:10.018Z,97224.41
2022-11-20T12:28:53.243Z,97221.00
2022-11-20T12:31:37.172Z,97210.69
2022-11-20T12:34:21.009Z,97202.56
2022-11-20T12:36:58.347Z,97199.75
2022-11-20T12:39:36.391Z,97193.31
2022-11-20T12:42:57.552Z,97196.94
2022-11-20T12:45:36.404Z,97200.91
2022-11-20T12:48:25.731Z,97199.72
2022-11-20T12:51:17.280Z,97204.25
2022-11-20T12:53:57.811Z,97205.00
2022-11-20T12:56:39.041Z,97201.19
2022-11-20T12:59:14.289Z,97198.41
2022-11-20T13:01:51.300Z,97194.78
2022-11-20T13:04:36.022Z,97187.03
2022-11-20T13:07:08.267Z,97187.19
2022-11-20T13:09:42.407Z,97179.56
2022-11-20T13:12:14.362Z,97182.69
2022-11-20T13:14:48.663Z,97187.00
2022-11-20T13:17:23.148Z,97190.66
2022-11-20T13:19:54.727Z,97193.81
2022-11-20T13:22:31.403Z,97196.44
2022-11-20T13:24:58.874Z,97194.41
2022-11-20T13:27:26.442Z,97196.88
2022-11-20T13:30:19.125Z,97187.78
2022-11-20T13:32:54.858Z,97195.59
2022-11-20T13:35:32.267Z,97194.63
2022-11-20T13:38:09.592Z,97199.94
2022-11-20T13:40:39.715Z,97216.66
2022-11-20T13:43:19.850Z,97215.13
2022-11-20T13:45:57.155Z,97204.91
2022-11-20T13:48:28.049Z,97199.56
2022-11-20T13:51:08.841Z,97207.03
2022-11-20T13:54:23.908Z,97200.88
2022-11-20T13:57:03.704Z,97199.91
2022-11-20T13:59:42.419Z,97193.31
2022-11-20T14:02:14.307Z,97192.44
2022-11-20T14:04:46.583Z,97190.31
2022-11-20T14:07:14.742Z,97189.97
2022-11-20T14:09:52.550Z,97195.44
2022-11-20T14:12:21.813Z,97184.66
2022-11-20T14:14:51.118Z,97188.84
2022-11-20T14:17:22.597Z,97189.66
2022-11-20T14:19:52.264Z,97188.50
2022-11-20T14:22:22.675Z,97193.81
2022-11-20T14:25:05.198Z,97190.81
2022-11-20T14:27:36.096Z,97199.25
2022-11-20T14:30:05.356Z,97182.38
2022-11-20T14:32:33.268Z,97196.44
2022-11-20T14:35:08.727Z,97195.78
2022-11-20T14:37:40.004Z,97203.19
2022-11-20T14:40:24.859Z,97194.63
2022-11-20T14:42:52.331Z,97194.78
2022-11-20T14:45:20.770Z,97193.13
2022-11-20T14:47:48.846Z,97184.03
2022-11-20T14:50:21.105Z,97185.84
2022-11-20T14:52:53.020Z,97188.66
2022-11-20T14:55:29.857Z,97185.16
2022-11-20T14:57:58.067Z,97185.50
2022-11-20T15:00:26.420Z,97188.84
2022-11-20T15:02:54.225Z,97194.16
2022-11-20T15:05:23.814Z,97195.78
2022-11-20T15:07:52.949Z,97180.88
2022-11-20T15:10:25.207Z,97180.19
2022-11-20T15:12:56.587Z,97185.50
2022-11-20T15:15:28.923Z,97181.53
2022-11-20T15:17:56.449Z,97191.47
2022-11-20T15:20:28.970Z,97182.03
2022-11-20T15:22:56.411Z,97184.53
2022-11-20T15:25:25.418Z,97185.34
2022-11-20T15:27:56.521Z,97176.50
2022-11-20T15:30:24.793Z,97173.94
2022-11-20T15:33:09.263Z,97173.91
2022-11-20T15:35:36.735Z,97170.00
2022-11-20T15:38:04.250Z,97161.88
2022-11-20T15:40:31.723Z,97169.63
2022-11-20T15:43:11.615Z,97175.91
2022-11-20T15:45:43.321Z,97180.78
2022-11-20T15:48:13.110Z,97176.56
2022-11-20T15:50:45.713Z,97176.31
2022-11-20T15:53:13.180Z,97157.19
2022-11-20T15:55:40.716Z,97156.00
2022-11-20T15:58:09.511Z,97141.28
2022-11-20T16:00:36.972Z,97135.13
2022-11-20T16:03:04.904Z,97142.25
2022-11-20T16:05:32.559Z,97137.13
2022-11-20T16:08:00.091Z,97127.84
2022-11-20T16:10:27.548Z,97137.44
2022-11-20T16:13:12.699Z,97133.94
2022-11-20T16:15:47.441Z,97130.16
2022-11-20T16:18:17.436Z,97132.31
2022-11-20T16:20:45.907Z,97147.06
2022-11-20T16:23:13.697Z,97137.47
2022-11-20T16:25:41.195Z,97128.50
2022-11-20T16:28:08.699Z,97129.66
2022-11-20T16:30:36.342Z,97127.84
2022-11-20T16:33:05.719Z,97129.69
2022-11-20T16:35:33.398Z,97138.44
2022-11-20T16:38:00.865Z,97141.56
2022-11-20T16:40:28.428Z,97136.47
2022-11-20T16:42:56.011Z,97128.34
2022-11-20T16:45:27.871Z,97138.63
2022-11-20T16:47:58.199Z,97133.19
2022-11-20T16:50:27.258Z,97135.34
2022-11-20T16:52:54.568Z,97137.94
2022-11-20T16:55:22.083Z,97139.91
2022-11-20T16:57:49.572Z,97138.63
2022-11-20T17:00:17.503Z,97134.16
2022-11-20T17:02:44.960Z,97124.88
2022-11-20T17:05:12.547Z,97124.69
2022-11-20T17:07:41.408Z,97129.19
2022-11-20T17:10:09.386Z,97122.06
2022-11-20T17:12:36.928Z,97125.72
2022-11-20T17:15:04.877Z,97118.13
2022-11-20T17:17:32.411Z,97114.13
2022-11-20T17:19:59.876Z,97112.63
2022-11-20T17:22:27.712Z,97106.13
2022-11-20T17:24:56.510Z,97106.97
2022-11-20T17:27:24.063Z,97100.59
2022-11-20T17:29:51.500Z,97111.28
2022-11-20T17:32:18.972Z,97106.66
2022-11-20T17:34:46.474Z,97113.31
2022-11-20T17:37:13.907Z,97101.56
2022-11-20T17:39:41.414Z,97100.25
2022-11-20T17:42:29.375Z,97094.59
2022-11-20T17:44:58.657Z,97096.94
2022-11-20T17:47:26.800Z,97087.13
2022-11-20T17:49:55.288Z,97089.78
2022-11-20T17:52:23.228Z,97081.66
2022-11-20T17:54:54.809Z,97090.25
2022-11-20T17:57:41.581Z,97088.19
2022-11-20T18:00:13.038Z,97091.31
2022-11-20T18:02:40.559Z,97085.34
2022-11-20T18:05:08.831Z,97078.66
2022-11-20T18:07:41.637Z,97077.16
2022-11-20T18:10:10.365Z,97069.09
2022-11-20T18:12:39.176Z,97064.06
2022-11-20T18:15:07.199Z,97062.91
2022-11-20T18:17:35.217Z,97055.28
2022-11-20T18:22:50.010Z,97053.94
2022-11-20T18:25:17.471Z,97055.25
2022-11-20T18:27:46.270Z,97050.16
2022-11-20T18:30:15.088Z,97047.97
2022-11-20T18:32:42.591Z,97048.13
2022-11-20T18:35:10.740Z,97043.50
2022-11-20T18:37:38.185Z,97038.22
2022-11-20T18:40:06.692Z,97034.72
2022-11-20T18:42:51.905Z,97029.59
2022-11-20T18:45:20.788Z,97029.41
2022-11-20T18:47:48.244Z,97028.91
2022-11-20T18:50:15.736Z,97022.44
2022-11-20T18:52:45.183Z,97017.47
2022-11-20T18:55:12.954Z,97025.44
2022-11-20T18:57:40.423Z,97015.94
2022-11-20T19:00:10.160Z,97017.59
2022-11-20T19:02:42.596Z,97004.03
2022-11-20T19:05:11.054Z,97004.34
2022-11-20T19:07:38.627Z,96999.53
2022-11-20T19:10:07.011Z,96998.22
2022-11-20T19:12:34.513Z,96992.75
2022-11-20T19:15:01.987Z,96995.72
2022-11-20T19:17:29.482Z,96990.41
2022-11-20T19:19:58.470Z,96989.09
2022-11-20T19:22:25.899Z,96986.09
2022-11-20T19:24:53.356Z,96983.97
2022-11-20T19:27:20.818Z,96984.59
2022-11-20T19:29:48.311Z,96983.63
2022-11-20T19:32:16.231Z,96981.94
2022-11-20T19:34:43.680Z,96984.09
2022-11-20T19:37:13.084Z,96968.44
2022-11-20T19:39:40.526Z,96980.78
2022-11-20T19:42:07.968Z,96989.28
2022-11-20T19:44:35.625Z,96984.28
2022-11-20T19:47:09.034Z,96985.75
2022-11-20T19:49:41.582Z,96988.75
2022-11-20T19:52:09.279Z,96987.09
2022-11-20T19:54:38.332Z,96987.09
2022-11-20T19:57:06.299Z,96983.81
2022-11-20T19:59:33.760Z,96979.63
2022-11-20T20:02:04.170Z,96975.50
2022-11-20T20:04:31.643Z,96970.50
2022-11-20T20:06:59.177Z,96970.66
2022-11-20T20:09:27.533Z,96978.31
2022-11-20T20:11:56.306Z,96967.09
2022-11-20T20:14:23.801Z,96965.25
2022-11-20T20:16:51.259Z,96962.03
2022-11-20T20:19:18.707Z,96948.94
2022-11-20T20:21:47.702Z,96959.75
2022-11-20T20:24:15.036Z,96953.56
2022-11-20T20:26:42.564Z,96962.03
2022-11-20T20:29:11.389Z,96959.34
2022-11-20T20:31:38.993Z,96958.25
2022-11-20T20:34:06.714Z,96952.88
2022-11-20T20:36:34.351Z,96957.72
2022-11-20T20:39:02.656Z,96964.00
2022-11-20T20:41:30.338Z,96959.94
2022-11-20T20:44:15.521Z,96961.06
2022-11-20T20:46:44.334Z,96962.22
2022-11-20T20:49:11.839Z,96959.34
2022-11-20T20:51:39.634Z,96955.75
2022-11-20T20:54:07.360Z,96957.09
2022-11-20T20:56:34.825Z,96954.78
2022-11-20T20:59:02.617Z,96954.78
2022-11-20T21:01:30.133Z,96951.28
2022-11-20T21:03:59.275Z,96939.25
2022-11-20T21:06:26.941Z,96934.06
2022-11-20T21:08:55.808Z,96940.66
2022-11-20T21:11:23.325Z,96930.53
2022-11-20T21:13:50.928Z,96917.47
2022-11-20T21:16:20.513Z,96919.63
2022-11-20T21:18:48.183Z,96917.94
2022-11-20T21:21:36.044Z,96909.97
2022-11-20T21:24:03.982Z,96909.25
2022-11-20T21:26:31.486Z,96901.56
2022-11-20T21:28:58.988Z,96896.88
2022-11-20T21:31:27.904Z,96902.34
2022-11-20T21:33:57.010Z,96898.75
2022-11-20T21:36:27.180Z,96894.59
2022-11-20T21:38:55.914Z,96888.75
2022-11-20T21:41:24.541Z,96877.69
2022-11-20T21:44:16.253Z,96875.66
2022-11-20T21:46:42.148Z,96860.06
2022-11-20T21:49:10.275Z,96865.88
2022-11-20T21:51:39.328Z,96864.59
2022-11-20T21:54:06.695Z,96859.66
2022-11-20T21:56:34.161Z,96859.28
2022-11-20T21:59:01.633Z,96857.09
2022-11-20T22:01:31.097Z,96845.91
2022-11-20T22:04:00.685Z,96849.31
2022-11-20T22:06:32.324Z,96846.50
2022-11-20T22:09:01.376Z,96848.69
2022-11-20T22:11:28.756Z,96849.50
2022-11-20T22:14:13.846Z,96843.91
2022-11-20T22:16:41.379Z,96846.44
2022-11-20T22:19:09.087Z,96843.47
2022-11-20T22:21:39.571Z,96843.47
2022-11-20T22:24:09.093Z,96842.59
2022-11-20T22:26:40.522Z,96843.69
2022-11-20T22:29:08.787Z,96847.84
2022-11-20T22:31:36.225Z,96838.38
2022-11-20T22:34:03.802Z,96838.72
2022-11-20T22:36:33.026Z,96845.50
2022-11-20T22:39:03.677Z,96848.00
2022-11-20T22:41:32.751Z,96840.81
2022-11-20T22:44:00.809Z,96834.06
2022-11-20T22:46:30.074Z,96836.41
2022-11-20T22:48:59.343Z,96836.88
2022-11-20T22:51:28.857Z,96828.16
2022-11-20T22:53:56.736Z,96831.63
2022-11-20T22:56:24.406Z,96825.28
2022-11-20T22:58:54.659Z,96830.22
2022-11-20T23:01:24.445Z,96831.47
2022-11-20T23:03:53.603Z,96824.75
2022-11-20T23:06:22.459Z,96827.47
2022-11-20T23:08:50.882Z,96828.47
2022-11-20T23:11:20.221Z,96832.66
2022-11-20T23:13:48.433Z,96829.53
2022-11-20T23:16:19.765Z,96836.88
2022-11-20T23:18:47.475Z,96831.94
2022-11-20T23:21:17.187Z,96835.41
2022-11-20T23:23:48.190Z,96839.31
2022-11-20T23:26:17.242Z,96830.22
2022-11-20T23:28:44.693Z,96823.91
2022-11-20T23:31:12.851Z,96825.28
2022-11-20T23:33:43.317Z,96827.88
2022-11-20T23:36:11.579Z,96826.75
2022-11-20T23:38:39.353Z,96821.63
2022-11-20T23:41:07.274Z,96825.94
2022-11-20T23:43:35.262Z,96828.59
2022-11-20T23:46:04.132Z,96821.09
2022-11-20T23:48:33.652Z,96819.44
2022-11-20T23:51:02.925Z,96807.47
2022-11-20T23:53:30.812Z,96820.44
2022-11-20T23:56:00.272Z,96813.31
2022-11-20T23:58:32.215Z,96816.34
